sensor_id;sensor_type;location;lat;lon;timestamp;P1;durP1;ratioP1;P2;durP2;ratioP2
819;SDS011;392;48.838;2.322;2022-08-19T00:00:40;13.27;;;12.20;;
819;SDS011;392;48.838;2.322;2022-08-19T00:03:08;11.90;;;11.00;;
819;SDS011;392;48.838;2.322;2022-08-19T00:05:35;13.23;;;12.30;;
819;SDS011;392;48.838;2.322;2022-08-19T00:08:02;13.67;;;12.67;;
819;SDS011;392;48.838;2.322;2022-08-19T00:10:30;12.80;;;11.50;;
819;SDS011;392;48.838;2.322;2022-08-19T00:12:59;12.07;;;11.13;;
819;SDS011;392;48.838;2.322;2022-08-19T00:15:26;12.23;;;11.37;;
819;SDS011;392;48.838;2.322;2022-08-19T00:17:55;12.30;;;11.20;;
819;SDS011;392;48.838;2.322;2022-08-19T00:20:25;11.83;;;10.93;;
819;SDS011;392;48.838;2.322;2022-08-19T00:22:52;10.63;;;9.93;;
819;SDS011;392;48.838;2.322;2022-08-19T00:25:20;11.57;;;10.80;;
819;SDS011;392;48.838;2.322;2022-08-19T00:27:48;11.30;;;10.40;;
819;SDS011;392;48.838;2.322;2022-08-19T00:30:15;11.27;;;10.50;;
819;SDS011;392;48.838;2.322;2022-08-19T00:32:43;11.17;;;10.20;;
819;SDS011;392;48.838;2.322;2022-08-19T00:35:12;11.30;;;10.50;;
819;SDS011;392;48.838;2.322;2022-08-19T00:37:39;11.47;;;10.50;;
819;SDS011;392;48.838;2.322;2022-08-19T00:40:09;10.10;;;9.40;;
819;SDS011;392;48.838;2.322;2022-08-19T00:42:38;10.70;;;9.97;;
819;SDS011;392;48.838;2.322;2022-08-19T00:45:08;11.07;;;10.27;;
819;SDS011;392;48.838;2.322;2022-08-19T00:47:42;11.60;;;10.70;;
819;SDS011;392;48.838;2.322;2022-08-19T00:50:12;11.03;;;9.90;;
819;SDS011;392;48.838;2.322;2022-08-19T00:52:43;10.73;;;9.90;;
819;SDS011;392;48.838;2.322;2022-08-19T00:55:14;11.27;;;10.40;;
819;SDS011;392;48.838;2.322;2022-08-19T00:57:46;11.73;;;10.70;;
819;SDS011;392;48.838;2.322;2022-08-19T01:00:20;11.63;;;10.73;;
819;SDS011;392;48.838;2.322;2022-08-19T01:02:49;11.33;;;10.43;;
819;SDS011;392;48.838;2.322;2022-08-19T01:05:20;11.03;;;10.33;;
819;SDS011;392;48.838;2.322;2022-08-19T01:07:50;11.30;;;10.50;;
819;SDS011;392;48.838;2.322;2022-08-19T01:10:19;11.50;;;10.60;;
819;SDS011;392;48.838;2.322;2022-08-19T01:12:51;10.97;;;9.87;;
819;SDS011;392;48.838;2.322;2022-08-19T01:15:22;11.30;;;10.50;;
819;SDS011;392;48.838;2.322;2022-08-19T01:17:54;11.77;;;10.80;;
819;SDS011;392;48.838;2.322;2022-08-19T01:20:25;11.30;;;10.50;;
819;SDS011;392;48.838;2.322;2022-08-19T01:22:54;11.27;;;10.17;;
819;SDS011;392;48.838;2.322;2022-08-19T01:25:25;11.90;;;11.00;;
819;SDS011;392;48.838;2.322;2022-08-19T01:27:56;11.43;;;10.53;;
819;SDS011;392;48.838;2.322;2022-08-19T01:30:25;11.07;;;10.27;;
819;SDS011;392;48.838;2.322;2022-08-19T01:32:57;12.27;;;11.27;;
819;SDS011;392;48.838;2.322;2022-08-19T01:35:26;11.60;;;10.80;;
819;SDS011;392;48.838;2.322;2022-08-19T01:37:58;12.50;;;11.50;;
819;SDS011;392;48.838;2.322;2022-08-19T01:40:31;11.63;;;10.73;;
819;SDS011;392;48.838;2.322;2022-08-19T01:43:02;11.03;;;10.23;;
819;SDS011;392;48.838;2.322;2022-08-19T01:45:31;10.97;;;10.17;;
819;SDS011;392;48.838;2.322;2022-08-19T01:48:01;11.37;;;10.40;;
819;SDS011;392;48.838;2.322;2022-08-19T01:50:30;11.43;;;10.63;;
819;SDS011;392;48.838;2.322;2022-08-19T01:53:00;12.60;;;11.60;;
819;SDS011;392;48.838;2.322;2022-08-19T01:55:30;12.43;;;11.53;;
819;SDS011;392;48.838;2.322;2022-08-19T01:57:58;12.53;;;11.63;;
819;SDS011;392;48.838;2.322;2022-08-19T02:00:29;12.07;;;11.07;;
819;SDS011;392;48.838;2.322;2022-08-19T02:02:58;12.30;;;11.40;;
819;SDS011;392;48.838;2.322;2022-08-19T02:05:26;11.83;;;10.90;;
819;SDS011;392;48.838;2.322;2022-08-19T02:07:54;10.80;;;10.00;;
819;SDS011;392;48.838;2.322;2022-08-19T02:10:23;11.33;;;10.40;;
819;SDS011;392;48.838;2.322;2022-08-19T02:12:51;11.83;;;10.93;;
819;SDS011;392;48.838;2.322;2022-08-19T02:15:19;9.70;;;9.10;;
819;SDS011;392;48.838;2.322;2022-08-19T02:17:47;11.90;;;11.00;;
819;SDS011;392;48.838;2.322;2022-08-19T02:20:15;11.80;;;11.00;;
819;SDS011;392;48.838;2.322;2022-08-19T02:22:42;11.20;;;10.40;;
819;SDS011;392;48.838;2.322;2022-08-19T02:25:10;12.17;;;11.27;;
819;SDS011;392;48.838;2.322;2022-08-19T02:27:41;11.77;;;10.97;;
819;SDS011;392;48.838;2.322;2022-08-19T02:30:11;12.27;;;11.27;;
819;SDS011;392;48.838;2.322;2022-08-19T02:32:42;12.40;;;11.10;;
819;SDS011;392;48.838;2.322;2022-08-19T02:35:10;12.27;;;11.27;;
819;SDS011;392;48.838;2.322;2022-08-19T02:37:38;12.23;;;11.20;;
819;SDS011;392;48.838;2.322;2022-08-19T02:40:23;11.97;;;11.00;;
819;SDS011;392;48.838;2.322;2022-08-19T02:42:52;12.37;;;11.47;;
819;SDS011;392;48.838;2.322;2022-08-19T02:45:19;12.00;;;11.10;;
819;SDS011;392;48.838;2.322;2022-08-19T02:47:47;12.03;;;11.13;;
819;SDS011;392;48.838;2.322;2022-08-19T02:50:14;13.30;;;12.10;;
819;SDS011;392;48.838;2.322;2022-08-19T02:52:41;11.70;;;10.90;;
819;SDS011;392;48.838;2.322;2022-08-19T02:55:08;12.23;;;11.07;;
819;SDS011;392;48.838;2.322;2022-08-19T02:57:36;11.77;;;10.87;;
819;SDS011;392;48.838;2.322;2022-08-19T03:00:05;11.50;;;10.60;;
819;SDS011;392;48.838;2.322;2022-08-19T03:02:36;11.40;;;10.53;;
819;SDS011;392;48.838;2.322;2022-08-19T03:05:04;11.63;;;10.73;;
819;SDS011;392;48.838;2.322;2022-08-19T03:07:34;11.93;;;10.93;;
819;SDS011;392;48.838;2.322;2022-08-19T03:10:02;13.03;;;11.80;;
819;SDS011;392;48.838;2.322;2022-08-19T03:12:30;11.10;;;10.10;;
819;SDS011;392;48.838;2.322;2022-08-19T03:14:57;10.47;;;9.57;;
819;SDS011;392;48.838;2.322;2022-08-19T03:17:25;12.87;;;11.67;;
819;SDS011;392;48.838;2.322;2022-08-19T03:19:53;10.33;;;9.53;;
819;SDS011;392;48.838;2.322;2022-08-19T03:22:20;10.73;;;9.93;;
819;SDS011;392;48.838;2.322;2022-08-19T03:24:48;11.90;;;10.80;;
819;SDS011;392;48.838;2.322;2022-08-19T03:27:15;12.23;;;11.23;;
819;SDS011;392;48.838;2.322;2022-08-19T03:29:43;10.37;;;9.60;;
819;SDS011;392;48.838;2.322;2022-08-19T03:32:11;11.07;;;9.97;;
819;SDS011;392;48.838;2.322;2022-08-19T03:34:39;10.67;;;9.70;;
819;SDS011;392;48.838;2.322;2022-08-19T03:37:08;10.70;;;9.90;;
819;SDS011;392;48.838;2.322;2022-08-19T03:39:37;9.80;;;9.00;;
819;SDS011;392;48.838;2.322;2022-08-19T03:42:07;10.10;;;9.30;;
819;SDS011;392;48.838;2.322;2022-08-19T03:44:35;8.77;;;7.97;;
819;SDS011;392;48.838;2.322;2022-08-19T03:47:04;10.00;;;9.20;;
819;SDS011;392;48.838;2.322;2022-08-19T03:49:31;8.83;;;8.13;;
819;SDS011;392;48.838;2.322;2022-08-19T03:52:01;10.53;;;9.53;;
819;SDS011;392;48.838;2.322;2022-08-19T03:54:32;8.80;;;8.10;;
819;SDS011;392;48.838;2.322;2022-08-19T03:56:59;9.67;;;8.87;;
819;SDS011;392;48.838;2.322;2022-08-19T03:59:29;10.23;;;9.33;;
819;SDS011;392;48.838;2.322;2022-08-19T04:01:59;10.07;;;9.17;;
819;SDS011;392;48.838;2.322;2022-08-19T04:04:29;9.93;;;9.13;;
819;SDS011;392;48.838;2.322;2022-08-19T04:06:57;10.50;;;9.70;;
819;SDS011;392;48.838;2.322;2022-08-19T04:09:26;9.40;;;8.80;;
819;SDS011;392;48.838;2.322;2022-08-19T04:11:54;9.50;;;8.73;;
819;SDS011;392;48.838;2.322;2022-08-19T04:14:24;9.90;;;9.10;;
819;SDS011;392;48.838;2.322;2022-08-19T04:16:55;8.13;;;7.43;;
819;SDS011;392;48.838;2.322;2022-08-19T04:19:23;7.77;;;7.27;;
819;SDS011;392;48.838;2.322;2022-08-19T04:21:52;7.03;;;6.53;;
819;SDS011;392;48.838;2.322;2022-08-19T04:24:21;7.33;;;6.73;;
819;SDS011;392;48.838;2.322;2022-08-19T04:26:50;6.83;;;6.37;;
819;SDS011;392;48.838;2.322;2022-08-19T04:29:19;6.63;;;6.23;;
819;SDS011;392;48.838;2.322;2022-08-19T04:31:50;5.93;;;5.53;;
819;SDS011;392;48.838;2.322;2022-08-19T04:34:20;6.30;;;5.90;;
819;SDS011;392;48.838;2.322;2022-08-19T04:36:50;6.10;;;5.70;;
819;SDS011;392;48.838;2.322;2022-08-19T04:39:19;5.23;;;4.93;;
819;SDS011;392;48.838;2.322;2022-08-19T04:42:10;5.90;;;5.40;;
819;SDS011;392;48.838;2.322;2022-08-19T04:44:55;6.90;;;6.40;;
819;SDS011;392;48.838;2.322;2022-08-19T04:47:23;5.03;;;4.77;;
819;SDS011;392;48.838;2.322;2022-08-19T04:49:51;5.33;;;4.93;;
819;SDS011;392;48.838;2.322;2022-08-19T04:52:18;5.50;;;5.20;;
819;SDS011;392;48.838;2.322;2022-08-19T04:54:45;5.83;;;5.43;;
819;SDS011;392;48.838;2.322;2022-08-19T04:57:14;5.43;;;5.13;;
819;SDS011;392;48.838;2.322;2022-08-19T04:59:43;5.47;;;5.07;;
819;SDS011;392;48.838;2.322;2022-08-19T05:02:10;5.60;;;5.10;;
819;SDS011;392;48.838;2.322;2022-08-19T05:04:37;5.33;;;5.00;;
819;SDS011;392;48.838;2.322;2022-08-19T05:07:05;5.63;;;5.23;;
819;SDS011;392;48.838;2.322;2022-08-19T05:09:35;5.63;;;5.30;;
819;SDS011;392;48.838;2.322;2022-08-19T05:12:02;5.37;;;5.07;;
819;SDS011;392;48.838;2.322;2022-08-19T05:14:32;6.13;;;5.53;;
819;SDS011;392;48.838;2.322;2022-08-19T05:17:01;6.17;;;5.57;;
819;SDS011;392;48.838;2.322;2022-08-19T05:19:29;5.20;;;4.90;;
819;SDS011;392;48.838;2.322;2022-08-19T05:22:14;5.17;;;4.90;;
819;SDS011;392;48.838;2.322;2022-08-19T05:25:02;5.13;;;4.80;;
819;SDS011;392;48.838;2.322;2022-08-19T05:27:33;5.23;;;4.93;;
819;SDS011;392;48.838;2.322;2022-08-19T05:30:02;5.60;;;5.10;;
819;SDS011;392;48.838;2.322;2022-08-19T05:32:31;6.40;;;5.90;;
819;SDS011;392;48.838;2.322;2022-08-19T05:34:58;6.50;;;5.97;;
819;SDS011;392;48.838;2.322;2022-08-19T05:37:26;6.90;;;6.40;;
819;SDS011;392;48.838;2.322;2022-08-19T05:39:53;6.70;;;6.30;;
819;SDS011;392;48.838;2.322;2022-08-19T05:42:21;6.70;;;6.20;;
819;SDS011;392;48.838;2.322;2022-08-19T05:44:49;6.17;;;5.67;;
819;SDS011;392;48.838;2.322;2022-08-19T05:47:18;6.47;;;5.87;;
819;SDS011;392;48.838;2.322;2022-08-19T05:49:47;5.03;;;4.73;;
819;SDS011;392;48.838;2.322;2022-08-19T05:52:16;5.83;;;5.43;;
819;SDS011;392;48.838;2.322;2022-08-19T05:54:43;5.70;;;5.20;;
819;SDS011;392;48.838;2.322;2022-08-19T05:57:13;5.17;;;4.87;;
819;SDS011;392;48.838;2.322;2022-08-19T05:59:41;8.00;;;5.73;;
819;SDS011;392;48.838;2.322;2022-08-19T06:02:11;5.63;;;5.23;;
819;SDS011;392;48.838;2.322;2022-08-19T06:04:40;5.20;;;4.80;;
819;SDS011;392;48.838;2.322;2022-08-19T06:07:08;5.00;;;4.70;;
819;SDS011;392;48.838;2.322;2022-08-19T06:09:36;4.43;;;4.13;;
819;SDS011;392;48.838;2.322;2022-08-19T06:12:03;4.50;;;4.13;;
819;SDS011;392;48.838;2.322;2022-08-19T06:14:32;4.77;;;4.47;;
819;SDS011;392;48.838;2.322;2022-08-19T06:17:01;4.50;;;4.20;;
819;SDS011;392;48.838;2.322;2022-08-19T06:19:29;5.50;;;5.10;;
819;SDS011;392;48.838;2.322;2022-08-19T06:21:59;4.53;;;4.23;;
819;SDS011;392;48.838;2.322;2022-08-19T06:24:27;3.87;;;3.67;;
819;SDS011;392;48.838;2.322;2022-08-19T06:26:57;4.47;;;4.27;;
819;SDS011;392;48.838;2.322;2022-08-19T06:29:26;4.60;;;4.40;;
819;SDS011;392;48.838;2.322;2022-08-19T06:31:55;4.20;;;4.00;;
819;SDS011;392;48.838;2.322;2022-08-19T06:34:25;4.20;;;4.00;;
819;SDS011;392;48.838;2.322;2022-08-19T06:36:54;4.20;;;3.90;;
819;SDS011;392;48.838;2.322;2022-08-19T06:39:27;3.77;;;3.57;;
819;SDS011;392;48.838;2.322;2022-08-19T06:42:04;3.97;;;3.77;;
819;SDS011;392;48.838;2.322;2022-08-19T06:44:35;3.90;;;3.70;;
819;SDS011;392;48.838;2.322;2022-08-19T06:47:04;3.67;;;3.43;;
819;SDS011;392;48.838;2.322;2022-08-19T06:49:34;4.00;;;3.80;;
819;SDS011;392;48.838;2.322;2022-08-19T06:52:02;3.93;;;3.73;;
819;SDS011;392;48.838;2.322;2022-08-19T06:54:32;4.43;;;4.03;;
819;SDS011;392;48.838;2.322;2022-08-19T06:57:01;3.83;;;3.53;;
819;SDS011;392;48.838;2.322;2022-08-19T06:59:29;4.00;;;3.70;;
819;SDS011;392;48.838;2.322;2022-08-19T07:01:58;3.30;;;3.20;;
819;SDS011;392;48.838;2.322;2022-08-19T07:04:31;3.80;;;3.60;;
819;SDS011;392;48.838;2.322;2022-08-19T07:07:02;4.30;;;4.00;;
819;SDS011;392;48.838;2.322;2022-08-19T07:09:34;3.70;;;3.50;;
819;SDS011;392;48.838;2.322;2022-08-19T07:12:03;5.60;;;4.00;;
819;SDS011;392;48.838;2.322;2022-08-19T07:14:33;3.77;;;3.57;;
819;SDS011;392;48.838;2.322;2022-08-19T07:17:03;4.23;;;3.93;;
819;SDS011;392;48.838;2.322;2022-08-19T07:19:32;3.30;;;3.10;;
819;SDS011;392;48.838;2.322;2022-08-19T07:22:01;3.90;;;3.70;;
819;SDS011;392;48.838;2.322;2022-08-19T07:24:30;4.17;;;3.97;;
819;SDS011;392;48.838;2.322;2022-08-19T07:27:01;3.60;;;3.40;;
819;SDS011;392;48.838;2.322;2022-08-19T07:29:30;3.50;;;3.23;;
819;SDS011;392;48.838;2.322;2022-08-19T07:32:00;3.27;;;3.07;;
819;SDS011;392;48.838;2.322;2022-08-19T07:34:29;3.47;;;3.23;;
819;SDS011;392;48.838;2.322;2022-08-19T07:37:01;2.77;;;2.67;;
819;SDS011;392;48.838;2.322;2022-08-19T07:39:30;3.40;;;3.20;;
819;SDS011;392;48.838;2.322;2022-08-19T07:42:04;3.10;;;3.00;;
819;SDS011;392;48.838;2.322;2022-08-19T07:44:34;3.37;;;3.17;;
819;SDS011;392;48.838;2.322;2022-08-19T07:47:02;3.30;;;3.00;;
819;SDS011;392;48.838;2.322;2022-08-19T07:49:32;2.90;;;2.70;;
819;SDS011;392;48.838;2.322;2022-08-19T07:52:01;3.30;;;3.10;;
819;SDS011;392;48.838;2.322;2022-08-19T07:54:32;3.63;;;3.47;;
819;SDS011;392;48.838;2.322;2022-08-19T07:57:04;3.40;;;3.20;;
819;SDS011;392;48.838;2.322;2022-08-19T07:59:32;4.57;;;3.20;;
819;SDS011;392;48.838;2.322;2022-08-19T08:02:01;2.80;;;2.70;;
819;SDS011;392;48.838;2.322;2022-08-19T08:04:29;3.07;;;2.80;;
819;SDS011;392;48.838;2.322;2022-08-19T08:07:20;2.40;;;2.30;;
819;SDS011;392;48.838;2.322;2022-08-19T08:10:05;16.13;;;9.07;;
819;SDS011;392;48.838;2.322;2022-08-19T08:12:35;12.93;;;6.30;;
819;SDS011;392;48.838;2.322;2022-08-19T08:15:08;11.23;;;7.70;;
819;SDS011;392;48.838;2.322;2022-08-19T08:17:42;3.07;;;2.93;;
819;SDS011;392;48.838;2.322;2022-08-19T08:20:10;3.33;;;3.13;;
819;SDS011;392;48.838;2.322;2022-08-19T08:22:42;4.23;;;3.53;;
819;SDS011;392;48.838;2.322;2022-08-19T08:25:28;3.17;;;2.97;;
819;SDS011;392;48.838;2.322;2022-08-19T08:27:57;3.17;;;2.97;;
819;SDS011;392;48.838;2.322;2022-08-19T08:30:25;3.00;;;2.80;;
819;SDS011;392;48.838;2.322;2022-08-19T08:32:55;3.07;;;2.97;;
819;SDS011;392;48.838;2.322;2022-08-19T08:35:23;3.10;;;2.90;;
819;SDS011;392;48.838;2.322;2022-08-19T08:37:51;3.20;;;2.90;;
819;SDS011;392;48.838;2.322;2022-08-19T08:40:21;3.20;;;3.00;;
819;SDS011;392;48.838;2.322;2022-08-19T08:42:55;3.20;;;3.00;;
819;SDS011;392;48.838;2.322;2022-08-19T08:45:30;3.50;;;3.30;;
819;SDS011;392;48.838;2.322;2022-08-19T08:48:00;3.60;;;3.40;;
819;SDS011;392;48.838;2.322;2022-08-19T08:50:38;3.23;;;3.13;;
819;SDS011;392;48.838;2.322;2022-08-19T08:53:09;3.87;;;3.57;;
819;SDS011;392;48.838;2.322;2022-08-19T08:55:43;3.90;;;3.60;;
819;SDS011;392;48.838;2.322;2022-08-19T08:58:14;3.87;;;3.57;;
819;SDS011;392;48.838;2.322;2022-08-19T09:00:48;3.57;;;3.30;;
819;SDS011;392;48.838;2.322;2022-08-19T09:03:17;4.20;;;3.90;;
819;SDS011;392;48.838;2.322;2022-08-19T09:05:49;4.20;;;3.90;;
819;SDS011;392;48.838;2.322;2022-08-19T09:08:29;3.50;;;3.20;;
819;SDS011;392;48.838;2.322;2022-08-19T09:11:06;4.30;;;3.93;;
819;SDS011;392;48.838;2.322;2022-08-19T09:13:41;4.23;;;3.83;;
819;SDS011;392;48.838;2.322;2022-08-19T09:16:29;4.07;;;3.70;;
819;SDS011;392;48.838;2.322;2022-08-19T09:18:58;5.90;;;4.10;;
819;SDS011;392;48.838;2.322;2022-08-19T09:21:29;4.23;;;3.93;;
819;SDS011;392;48.838;2.322;2022-08-19T09:23:57;3.13;;;3.00;;
819;SDS011;392;48.838;2.322;2022-08-19T09:26:25;3.93;;;3.50;;
819;SDS011;392;48.838;2.322;2022-08-19T09:28:54;3.87;;;3.63;;
819;SDS011;392;48.838;2.322;2022-08-19T09:31:24;3.43;;;3.23;;
819;SDS011;392;48.838;2.322;2022-08-19T09:33:54;4.83;;;4.53;;
819;SDS011;392;48.838;2.322;2022-08-19T09:36:23;3.23;;;3.13;;
819;SDS011;392;48.838;2.322;2022-08-19T09:38:54;4.10;;;3.80;;
819;SDS011;392;48.838;2.322;2022-08-19T09:41:23;3.37;;;3.20;;
819;SDS011;392;48.838;2.322;2022-08-19T09:43:51;4.00;;;3.60;;
819;SDS011;392;48.838;2.322;2022-08-19T09:46:23;4.30;;;4.00;;
819;SDS011;392;48.838;2.322;2022-08-19T09:48:54;3.90;;;3.70;;
819;SDS011;392;48.838;2.322;2022-08-19T09:51:24;3.67;;;3.47;;
819;SDS011;392;48.838;2.322;2022-08-19T09:53:54;4.27;;;3.87;;
819;SDS011;392;48.838;2.322;2022-08-19T09:56:26;3.80;;;3.60;;
819;SDS011;392;48.838;2.322;2022-08-19T09:58:59;3.70;;;3.50;;
819;SDS011;392;48.838;2.322;2022-08-19T10:01:27;4.13;;;3.93;;
819;SDS011;392;48.838;2.322;2022-08-19T10:03:58;3.53;;;3.23;;
819;SDS011;392;48.838;2.322;2022-08-19T10:06:28;3.87;;;3.67;;
819;SDS011;392;48.838;2.322;2022-08-19T10:08:58;3.60;;;3.40;;
819;SDS011;392;48.838;2.322;2022-08-19T10:11:26;3.67;;;3.47;;
819;SDS011;392;48.838;2.322;2022-08-19T10:13:54;3.47;;;3.37;;
819;SDS011;392;48.838;2.322;2022-08-19T10:16:23;3.67;;;3.47;;
819;SDS011;392;48.838;2.322;2022-08-19T10:18:50;3.50;;;3.30;;
819;SDS011;392;48.838;2.322;2022-08-19T10:21:20;3.97;;;3.73;;
819;SDS011;392;48.838;2.322;2022-08-19T10:23:50;3.50;;;3.20;;
819;SDS011;392;48.838;2.322;2022-08-19T10:26:21;3.70;;;3.50;;
819;SDS011;392;48.838;2.322;2022-08-19T10:28:51;4.17;;;3.97;;
819;SDS011;392;48.838;2.322;2022-08-19T10:31:19;4.30;;;4.00;;
819;SDS011;392;48.838;2.322;2022-08-19T10:33:50;3.53;;;3.37;;
819;SDS011;392;48.838;2.322;2022-08-19T10:36:23;3.93;;;3.63;;
819;SDS011;392;48.838;2.322;2022-08-19T10:38:54;4.40;;;4.20;;
819;SDS011;392;48.838;2.322;2022-08-19T10:41:25;3.10;;;2.90;;
819;SDS011;392;48.838;2.322;2022-08-19T10:43:55;4.60;;;4.20;;
819;SDS011;392;48.838;2.322;2022-08-19T10:46:26;3.37;;;3.27;;
819;SDS011;392;48.838;2.322;2022-08-19T10:48:56;3.27;;;3.17;;
819;SDS011;392;48.838;2.322;2022-08-19T10:51:23;3.50;;;3.40;;
819;SDS011;392;48.838;2.322;2022-08-19T10:54:08;3.53;;;3.23;;
819;SDS011;392;48.838;2.322;2022-08-19T10:56:36;3.30;;;3.20;;
819;SDS011;392;48.838;2.322;2022-08-19T10:59:18;3.20;;;3.10;;
819;SDS011;392;48.838;2.322;2022-08-19T11:01:49;4.20;;;3.60;;
819;SDS011;392;48.838;2.322;2022-08-19T11:04:19;3.57;;;3.43;;
819;SDS011;392;48.838;2.322;2022-08-19T11:06:48;4.13;;;3.83;;
819;SDS011;392;48.838;2.322;2022-08-19T11:09:16;4.10;;;4.00;;
819;SDS011;392;48.838;2.322;2022-08-19T11:11:45;4.60;;;4.40;;
819;SDS011;392;48.838;2.322;2022-08-19T11:14:13;3.80;;;3.70;;
819;SDS011;392;48.838;2.322;2022-08-19T11:16:44;3.67;;;3.53;;
819;SDS011;392;48.838;2.322;2022-08-19T11:19:12;5.77;;;3.77;;
819;SDS011;392;48.838;2.322;2022-08-19T11:21:43;4.80;;;4.50;;
819;SDS011;392;48.838;2.322;2022-08-19T11:24:14;3.80;;;3.60;;
819;SDS011;392;48.838;2.322;2022-08-19T11:26:45;3.60;;;3.43;;
819;SDS011;392;48.838;2.322;2022-08-19T11:29:14;3.47;;;3.30;;
819;SDS011;392;48.838;2.322;2022-08-19T11:31:44;3.53;;;3.43;;
819;SDS011;392;48.838;2.322;2022-08-19T11:34:16;3.23;;;3.10;;
819;SDS011;392;48.838;2.322;2022-08-19T11:36:46;3.50;;;3.40;;
819;SDS011;392;48.838;2.322;2022-08-19T11:39:16;3.20;;;3.10;;
819;SDS011;392;48.838;2.322;2022-08-19T11:41:46;3.97;;;3.77;;
819;SDS011;392;48.838;2.322;2022-08-19T11:44:14;3.60;;;3.50;;
819;SDS011;392;48.838;2.322;2022-08-19T11:46:42;3.00;;;3.00;;
819;SDS011;392;48.838;2.322;2022-08-19T11:49:11;3.80;;;3.60;;
819;SDS011;392;48.838;2.322;2022-08-19T11:51:42;3.53;;;3.43;;
819;SDS011;392;48.838;2.322;2022-08-19T11:54:09;3.93;;;3.70;;
819;SDS011;392;48.838;2.322;2022-08-19T11:56:42;3.20;;;3.10;;
819;SDS011;392;48.838;2.322;2022-08-19T11:59:10;3.60;;;3.47;;
819;SDS011;392;48.838;2.322;2022-08-19T12:01:38;3.63;;;3.53;;
819;SDS011;392;48.838;2.322;2022-08-19T12:04:06;3.97;;;3.87;;
819;SDS011;392;48.838;2.322;2022-08-19T12:06:33;3.80;;;3.70;;
819;SDS011;392;48.838;2.322;2022-08-19T12:09:06;3.67;;;3.47;;
819;SDS011;392;48.838;2.322;2022-08-19T12:11:35;3.17;;;2.97;;
819;SDS011;392;48.838;2.322;2022-08-19T12:14:03;3.70;;;3.60;;
819;SDS011;392;48.838;2.322;2022-08-19T12:16:31;3.83;;;3.53;;
819;SDS011;392;48.838;2.322;2022-08-19T12:18:59;4.00;;;3.70;;
819;SDS011;392;48.838;2.322;2022-08-19T12:21:30;3.37;;;3.23;;
819;SDS011;392;48.838;2.322;2022-08-19T12:24:00;3.50;;;3.37;;
819;SDS011;392;48.838;2.322;2022-08-19T12:26:31;3.83;;;3.30;;
819;SDS011;392;48.838;2.322;2022-08-19T12:28:58;3.50;;;3.30;;
819;SDS011;392;48.838;2.322;2022-08-19T12:31:26;3.50;;;3.20;;
819;SDS011;392;48.838;2.322;2022-08-19T12:33:54;4.60;;;3.77;;
819;SDS011;392;48.838;2.322;2022-08-19T12:36:22;3.43;;;3.33;;
819;SDS011;392;48.838;2.322;2022-08-19T12:38:50;4.17;;;3.90;;
819;SDS011;392;48.838;2.322;2022-08-19T12:41:19;3.63;;;3.53;;
819;SDS011;392;48.838;2.322;2022-08-19T12:43:48;3.67;;;3.47;;
819;SDS011;392;48.838;2.322;2022-08-19T12:46:16;4.37;;;3.97;;
819;SDS011;392;48.838;2.322;2022-08-19T12:48:45;4.90;;;4.50;;
819;SDS011;392;48.838;2.322;2022-08-19T12:51:13;4.63;;;4.37;;
819;SDS011;392;48.838;2.322;2022-08-19T12:53:44;3.93;;;3.73;;
819;SDS011;392;48.838;2.322;2022-08-19T12:56:12;4.33;;;4.03;;
819;SDS011;392;48.838;2.322;2022-08-19T12:58:40;3.80;;;3.60;;
819;SDS011;392;48.838;2.322;2022-08-19T13:01:10;4.67;;;4.37;;
819;SDS011;392;48.838;2.322;2022-08-19T13:03:41;4.07;;;3.87;;
819;SDS011;392;48.838;2.322;2022-08-19T13:06:09;5.10;;;4.43;;
819;SDS011;392;48.838;2.322;2022-08-19T13:08:36;3.50;;;3.40;;
819;SDS011;392;48.838;2.322;2022-08-19T13:11:08;4.47;;;4.27;;
819;SDS011;392;48.838;2.322;2022-08-19T13:13:39;4.07;;;3.80;;
819;SDS011;392;48.838;2.322;2022-08-19T13:16:08;4.80;;;4.60;;
819;SDS011;392;48.838;2.322;2022-08-19T13:18:38;3.67;;;3.47;;
819;SDS011;392;48.838;2.322;2022-08-19T13:21:08;3.73;;;3.53;;
819;SDS011;392;48.838;2.322;2022-08-19T13:23:38;3.50;;;3.40;;
819;SDS011;392;48.838;2.322;2022-08-19T13:26:07;3.20;;;3.10;;
819;SDS011;392;48.838;2.322;2022-08-19T13:28:37;3.20;;;3.10;;
819;SDS011;392;48.838;2.322;2022-08-19T13:31:25;3.17;;;3.07;;
819;SDS011;392;48.838;2.322;2022-08-19T13:34:13;3.40;;;3.30;;
819;SDS011;392;48.838;2.322;2022-08-19T13:36:42;3.80;;;3.60;;
819;SDS011;392;48.838;2.322;2022-08-19T13:39:09;3.40;;;3.30;;
819;SDS011;392;48.838;2.322;2022-08-19T13:41:42;3.70;;;3.50;;
819;SDS011;392;48.838;2.322;2022-08-19T13:44:13;4.27;;;4.07;;
819;SDS011;392;48.838;2.322;2022-08-19T13:46:42;4.13;;;3.90;;
819;SDS011;392;48.838;2.322;2022-08-19T13:49:10;3.70;;;3.60;;
819;SDS011;392;48.838;2.322;2022-08-19T13:51:41;3.70;;;3.60;;
819;SDS011;392;48.838;2.322;2022-08-19T13:54:09;3.80;;;3.70;;
819;SDS011;392;48.838;2.322;2022-08-19T13:56:39;4.30;;;4.00;;
819;SDS011;392;48.838;2.322;2022-08-19T13:59:08;4.60;;;4.30;;
819;SDS011;392;48.838;2.322;2022-08-19T14:01:35;4.53;;;4.33;;
819;SDS011;392;48.838;2.322;2022-08-19T14:04:04;5.30;;;4.97;;
819;SDS011;392;48.838;2.322;2022-08-19T14:06:32;4.60;;;4.40;;
819;SDS011;392;48.838;2.322;2022-08-19T14:09:00;4.60;;;4.50;;
819;SDS011;392;48.838;2.322;2022-08-19T14:11:28;4.77;;;4.47;;
819;SDS011;392;48.838;2.322;2022-08-19T14:13:55;4.60;;;4.30;;
819;SDS011;392;48.838;2.322;2022-08-19T14:16:23;4.00;;;3.90;;
819;SDS011;392;48.838;2.322;2022-08-19T14:18:50;4.30;;;4.20;;
819;SDS011;392;48.838;2.322;2022-08-19T14:21:21;3.60;;;3.50;;
819;SDS011;392;48.838;2.322;2022-08-19T14:23:50;3.57;;;3.47;;
819;SDS011;392;48.838;2.322;2022-08-19T14:26:18;4.80;;;4.50;;
819;SDS011;392;48.838;2.322;2022-08-19T14:28:47;4.10;;;4.00;;
819;SDS011;392;48.838;2.322;2022-08-19T14:31:16;3.87;;;3.77;;
819;SDS011;392;48.838;2.322;2022-08-19T14:33:44;3.80;;;3.60;;
819;SDS011;392;48.838;2.322;2022-08-19T14:36:13;4.10;;;3.90;;
819;SDS011;392;48.838;2.322;2022-08-19T14:38:42;4.43;;;4.23;;
819;SDS011;392;48.838;2.322;2022-08-19T14:41:11;4.63;;;4.33;;
819;SDS011;392;48.838;2.322;2022-08-19T14:43:41;3.43;;;3.23;;
819;SDS011;392;48.838;2.322;2022-08-19T14:46:11;4.40;;;4.23;;
819;SDS011;392;48.838;2.322;2022-08-19T14:48:40;4.10;;;3.97;;
819;SDS011;392;48.838;2.322;2022-08-19T14:51:08;3.40;;;3.30;;
819;SDS011;392;48.838;2.322;2022-08-19T14:53:35;3.97;;;3.77;;
819;SDS011;392;48.838;2.322;2022-08-19T14:56:08;3.07;;;3.07;;
819;SDS011;392;48.838;2.322;2022-08-19T14:58:37;3.90;;;3.70;;
819;SDS011;392;48.838;2.322;2022-08-19T15:01:06;10.00;;;9.20;;
819;SDS011;392;48.838;2.322;2022-08-19T15:03:34;3.97;;;3.77;;
819;SDS011;392;48.838;2.322;2022-08-19T15:06:03;4.10;;;3.80;;
819;SDS011;392;48.838;2.322;2022-08-19T15:08:32;3.40;;;3.30;;
819;SDS011;392;48.838;2.322;2022-08-19T15:11:02;5.20;;;4.90;;
819;SDS011;392;48.838;2.322;2022-08-19T15:13:35;3.70;;;3.60;;
819;SDS011;392;48.838;2.322;2022-08-19T15:16:04;22.80;;;20.50;;
819;SDS011;392;48.838;2.322;2022-08-19T15:18:32;11.67;;;10.67;;
819;SDS011;392;48.838;2.322;2022-08-19T15:21:00;5.10;;;4.80;;
819;SDS011;392;48.838;2.322;2022-08-19T15:23:29;5.17;;;4.87;;
819;SDS011;392;48.838;2.322;2022-08-19T15:25:56;4.87;;;4.53;;
819;SDS011;392;48.838;2.322;2022-08-19T15:28:25;17.10;;;15.30;;
819;SDS011;392;48.838;2.322;2022-08-19T15:30:53;5.50;;;5.10;;
819;SDS011;392;48.838;2.322;2022-08-19T15:33:21;8.10;;;7.40;;
819;SDS011;392;48.838;2.322;2022-08-19T15:35:48;4.03;;;3.83;;
819;SDS011;392;48.838;2.322;2022-08-19T15:38:16;3.70;;;3.60;;
819;SDS011;392;48.838;2.322;2022-08-19T15:40:46;3.63;;;3.53;;
819;SDS011;392;48.838;2.322;2022-08-19T15:43:16;6.27;;;5.80;;
819;SDS011;392;48.838;2.322;2022-08-19T15:45:47;3.10;;;3.00;;
819;SDS011;392;48.838;2.322;2022-08-19T15:48:14;4.10;;;3.80;;
819;SDS011;392;48.838;2.322;2022-08-19T15:50:42;4.60;;;4.30;;
819;SDS011;392;48.838;2.322;2022-08-19T15:53:09;4.20;;;4.00;;